^^
Datos históricos de la estación: Murcia-Puente Tocinos
Diario Informe para Abril 25, 2019 Unidades:  Métrico    Inglés   Ambas
Diario Semanal Mensual Anual Configurable
  Máximo: Mínimo: Media:
Temperatura: 24.0 °C 11.7 °C 17.5 °C
Punto de rocio: 12.8 °C 5.7 °C 10.2 °C
Humedad: 91% 33% 65%
Velocidad viento: 24.5km/h 0.0km/h 7.8km/h
Racha viento: 42.6km/h - -
Viento- - WSW
Presión: 1016.8 hPa 1009.2 hPa -
Precipitación: 0.0 mm    
Historical Graphs
 
 
Tabla de datos para Abril 25, 2019
Hora Temperatura Punto de rocio Presión Viento Velocidad viento Racha viento Humedad Intensidad lluvia(por hora) Nubes
00:00 15.2 °C 10.6 °C 1010.0 hPa ESE 8.0 km/h 9.7 km/h 74% 0.0 mm CLR
00:05 15.2 °C 10.6 °C 1010.0 hPa NW 6.9 km/h 3.7 km/h 74% 0.0 mm CLR
00:10 15.2 °C 10.8 °C 1010.0 hPa NW 3.2 km/h 5.6 km/h 75% 0.0 mm CLR
00:15 15.1 °C 10.7 °C 1010.0 hPa NW 3.2 km/h 13.0 km/h 75% 0.0 mm CLR
00:20 15.0 °C 10.8 °C 1010.1 hPa NNW 6.9 km/h 9.3 km/h 76% 0.0 mm CLR
00:25 14.9 °C 10.9 °C 1010.1 hPa NNW 6.9 km/h 7.4 km/h 77% 0.0 mm CLR
00:30 14.9 °C 10.9 °C 1010.1 hPa NNW 3.9 km/h 3.7 km/h 77% 0.0 mm CLR
00:35 14.9 °C 10.9 °C 1010.3 hPa NNW 3.9 km/h 5.6 km/h 77% 0.0 mm CLR
00:40 14.8 °C 11.0 °C 1010.3 hPa NE 3.2 km/h 5.6 km/h 78% 0.0 mm CLR
00:45 14.8 °C 11.0 °C 1010.3 hPa NE 3.2 km/h 4.7 km/h 78% 0.0 mm CLR
00:50 14.7 °C 10.9 °C 1010.4 hPa East 3.2 km/h 11.1 km/h 78% 0.0 mm CLR
00:55 14.5 °C 10.9 °C 1010.4 hPa SE 3.2 km/h 7.4 km/h 79% 0.0 mm CLR
01:00 14.3 °C 10.9 °C 1010.4 hPa ESE 4.8 km/h 9.7 km/h 80% 0.0 mm CLR
01:05 14.1 °C 10.9 °C 1010.3 hPa ESE 5.0 km/h 9.3 km/h 81% 0.0 mm CLR
01:10 13.9 °C 10.7 °C 1010.3 hPa NE 6.4 km/h 3.9 km/h 81% 0.0 mm CLR
01:15 13.8 °C 10.8 °C 1010.3 hPa ESE 6.4 km/h 7.4 km/h 82% 0.0 mm CLR
01:20 13.8 °C 10.8 °C 1010.3 hPa ESE 2.9 km/h 3.7 km/h 82% 0.0 mm CLR
01:25 13.9 °C 10.9 °C 1010.3 hPa ESE 2.9 km/h   82% 0.0 mm CLR
01:30 13.9 °C 10.9 °C 1010.3 hPa Calm     82% 0.0 mm CLR
01:35 14.1 °C 10.9 °C 1010.3 hPa Calm   7.4 km/h 81% 0.0 mm CLR
01:40 14.1 °C 10.9 °C 1010.3 hPa NNE 3.2 km/h 5.6 km/h 81% 0.0 mm CLR
01:45 13.9 °C 10.7 °C 1010.3 hPa NE 3.2 km/h 8.4 km/h 81% 0.0 mm CLR
01:50 13.8 °C 10.8 °C 1010.2 hPa NE 4.7 km/h 3.7 km/h 82% 0.0 mm CLR
01:55 13.6 °C 10.6 °C 1010.2 hPa North 4.7 km/h 9.3 km/h 82% 0.0 mm CLR
02:00 13.4 °C 10.6 °C 1010.2 hPa NNE 3.2 km/h 9.7 km/h 83% 0.0 mm CLR
02:05 13.2 °C 10.6 °C 1010.2 hPa NNW 4.7 km/h 5.8 km/h 84% 0.0 mm CLR
02:10 13.2 °C 10.7 °C 1010.2 hPa NNW 4.7 km/h 3.7 km/h 85% 0.0 mm CLR
02:15 13.1 °C 10.6 °C 1010.2 hPa NNW 4.7 km/h 3.7 km/h 85% 0.0 mm CLR
02:20 13.1 °C 10.8 °C 1010.3 hPa NNW 2.3 km/h   86% 0.0 mm CLR
02:25 13.1 °C 10.8 °C 1010.3 hPa NNW 2.3 km/h 3.2 km/h 86% 0.0 mm CLR
02:30 13.1 °C 10.8 °C 1010.3 hPa Calm   4.8 km/h 86% 0.0 mm CLR
02:35 13.2 °C 10.9 °C 1010.4 hPa Calm   7.4 km/h 86% 0.0 mm CLR
02:40 13.2 °C 10.9 °C 1010.4 hPa West 2.9 km/h 7.4 km/h 86% 0.0 mm CLR
02:45 13.2 °C 10.9 °C 1010.4 hPa West 2.9 km/h   86% 0.0 mm CLR
02:50 13.2 °C 10.9 °C 1010.4 hPa West 2.3 km/h 2.3 km/h 86% 0.0 mm CLR
02:55 13.3 °C 11.0 °C 1010.4 hPa ESE 2.3 km/h 7.4 km/h 86% 0.0 mm CLR
03:00 13.4 °C 10.9 °C 1010.4 hPa SE 3.2 km/h 11.3 km/h 85% 0.0 mm CLR
03:05 13.3 °C 10.8 °C 1010.1 hPa East 3.9 km/h 7.4 km/h 85% 0.0 mm CLR
03:10 13.2 °C 10.9 °C 1010.1 hPa East 5.0 km/h 8.4 km/h 86% 0.0 mm CLR
03:15 13.1 °C 10.8 °C 1010.1 hPa East 5.0 km/h 7.4 km/h 86% 0.0 mm CLR
03:20 13.1 °C 10.8 °C 1009.9 hPa East 4.7 km/h   86% 0.0 mm CLR
03:25 13.1 °C 10.8 °C 1009.9 hPa East 3.2 km/h 3.2 km/h 86% 0.0 mm CLR
03:30 13.1 °C 10.8 °C 1009.9 hPa Calm   5.8 km/h 86% 0.0 mm CLR
03:35 13.0 °C 10.7 °C 1009.9 hPa Calm   3.7 km/h 86% 0.0 mm CLR
03:40 12.9 °C 10.6 °C 1009.7 hPa North 3.2 km/h 8.0 km/h 86% 0.0 mm CLR
03:45 12.8 °C 10.5 °C 1009.7 hPa NNE 2.9 km/h 7.4 km/h 86% 0.0 mm CLR
03:50 12.7 °C 10.6 °C 1009.7 hPa NW 5.0 km/h 7.4 km/h 87% 0.0 mm CLR
03:55 12.6 °C 10.5 °C 1009.7 hPa NNW 4.8 km/h 11.3 km/h 87% 0.0 mm CLR
04:00 12.5 °C 10.6 °C 1009.7 hPa NW 4.8 km/h 9.7 km/h 88% 0.0 mm CLR
04:05 12.5 °C 10.6 °C 1009.7 hPa NW 4.8 km/h 8.0 km/h 88% 0.0 mm CLR
04:10 12.6 °C 10.8 °C 1009.8 hPa West 5.0 km/h 3.7 km/h 89% 0.0 mm CLR
04:15 12.6 °C 10.8 °C 1009.8 hPa West 5.0 km/h   89% 0.0 mm CLR
04:19 12.6 °C 10.7 °C 1009.9 hPa Calm   1.9 km/h 88% 0.0 mm CLR
04:25 12.7 °C 10.8 °C 1009.9 hPa Calm   7.4 km/h 88% 0.0 mm CLR
04:30 12.6 °C 10.7 °C 1009.9 hPa SE 4.7 km/h 7.4 km/h 88% 0.0 mm CLR
04:34 12.5 °C 10.6 °C 1009.7 hPa SSE 4.7 km/h 6.9 km/h 88% 0.0 mm CLR
04:39 12.4 °C 10.4 °C 1009.7 hPa South 5.0 km/h 7.4 km/h 88% 0.0 mm CLR
04:45 12.4 °C 10.6 °C 1009.7 hPa South 5.0 km/h   89% 0.0 mm CLR
04:49 12.4 °C 10.6 °C 1009.6 hPa Calm   5.0 km/h 89% 0.0 mm CLR
04:55 12.6 °C 10.8 °C 1009.6 hPa Calm   5.6 km/h 89% 0.0 mm CLR
04:59 12.6 °C 10.7 °C 1009.6 hPa Calm   7.4 km/h 88% 0.0 mm CLR
05:05 12.6 °C 10.7 °C 1009.5 hPa SSW 4.7 km/h   88% 0.0 mm CLR
05:10 12.7 °C 10.8 °C 1009.5 hPa SSW 2.9 km/h   88% 0.0 mm CLR
05:15 12.7 °C 10.8 °C 1009.5 hPa NW 2.9 km/h 2.3 km/h 88% 0.0 mm CLR
05:20 12.5 °C 10.6 °C 1009.5 hPa NW 2.9 km/h 9.5 km/h 88% 0.0 mm CLR
05:25 12.3 °C 10.4 °C 1009.5 hPa NNW 2.9 km/h 9.3 km/h 88% 0.0 mm CLR
05:30 12.3 °C 10.6 °C 1009.5 hPa NNW 5.8 km/h 3.7 km/h 89% 0.0 mm CLR
05:35 12.3 °C 10.6 °C 1009.7 hPa NNW 5.8 km/h   89% 0.0 mm CLR
05:40 12.3 °C 10.6 °C 1009.7 hPa Calm     89% 0.0 mm CLR
05:45 12.3 °C 10.7 °C 1009.7 hPa Calm   5.6 km/h 90% 0.0 mm CLR
05:50 12.4 °C 10.6 °C 1009.5 hPa ESE 2.9 km/h 11.1 km/h 89% 0.0 mm CLR
05:55 12.2 °C 10.4 °C 1009.5 hPa ESE 2.9 km/h 7.4 km/h 89% 0.0 mm CLR
06:00 12.2 °C 10.4 °C 1009.5 hPa East 4.8 km/h 4.8 km/h 89% 0.0 mm CLR
06:05 12.2 °C 10.4 °C 1009.5 hPa NE 5.0 km/h   89% 0.0 mm CLR
06:10 12.1 °C 10.5 °C 1009.5 hPa ENE 2.3 km/h   90% 0.0 mm CLR
06:15 12.2 °C 10.6 °C 1009.5 hPa North 2.3 km/h 5.6 km/h 90% 0.0 mm CLR
06:20 12.2 °C 10.6 °C 1009.6 hPa NW 2.3 km/h 7.4 km/h 90% 0.0 mm CLR
06:25 12.2 °C 10.6 °C 1009.6 hPa WNW 2.3 km/h 3.7 km/h 90% 0.0 mm CLR
06:30 12.2 °C 10.4 °C 1009.6 hPa NE 2.9 km/h 7.4 km/h 89% 0.0 mm CLR
06:35 12.1 °C 10.3 °C 1009.3 hPa NNE 2.9 km/h 5.6 km/h 89% 0.0 mm CLR
06:40 11.9 °C 10.2 °C 1009.3 hPa NNW 2.9 km/h 6.4 km/h 89% 0.0 mm CLR
06:45 11.9 °C 10.3 °C 1009.3 hPa NNE 2.9 km/h 3.7 km/h 90% 0.0 mm CLR
06:50 11.8 °C 10.2 °C 1009.2 hPa NNE 3.2 km/h 7.4 km/h 90% 0.0 mm CLR
06:55 11.8 °C 10.2 °C 1009.2 hPa NW 3.2 km/h 9.3 km/h 90% 0.0 mm CLR
07:00 11.7 °C 10.1 °C 1009.2 hPa NNW 3.2 km/h 9.7 km/h 90% 0.0 mm CLR
07:05 11.7 °C 10.3 °C 1009.5 hPa WNW 4.7 km/h   91% 0.0 mm CLR
07:10 11.7 °C 10.3 °C 1009.5 hPa West 3.2 km/h 7.4 km/h 91% 0.0 mm CLR
07:15 11.7 °C 10.3 °C 1009.5 hPa South 3.2 km/h 7.4 km/h 91% 0.0 mm CLR
07:20 11.8 °C 10.4 °C 1009.5 hPa South 3.9 km/h 3.9 km/h 91% 0.0 mm CLR
07:25 11.9 °C 10.3 °C 1009.5 hPa West 3.9 km/h 7.4 km/h 90% 0.0 mm CLR
07:30 12.0 °C 10.4 °C 1009.5 hPa West 3.9 km/h 3.7 km/h 90% 0.0 mm CLR
07:35 12.0 °C 10.2 °C 1009.8 hPa East 3.9 km/h 5.6 km/h 89% 0.0 mm CLR
07:40 11.9 °C 10.3 °C 1009.8 hPa East 3.2 km/h   90% 0.0 mm CLR
07:45 11.9 °C 10.3 °C 1009.8 hPa NW 3.2 km/h 5.6 km/h 90% 0.0 mm CLR
07:50 11.8 °C 10.1 °C 1010.0 hPa NNW 2.9 km/h 5.6 km/h 89% 0.0 mm CLR
07:55 11.8 °C 10.2 °C 1010.0 hPa East 2.9 km/h 7.4 km/h 90% 0.0 mm CLR
08:00 11.9 °C 10.5 °C 1010.0 hPa ENE 3.2 km/h 8.0 km/h 91% 0.0 mm CLR
08:05 12.0 °C 10.6 °C 1010.2 hPa East 3.9 km/h 3.7 km/h 91% 0.0 mm CLR
08:10 12.1 °C 10.5 °C 1010.2 hPa NW 2.9 km/h 3.9 km/h 90% 0.0 mm CLR
08:15 12.3 °C 10.9 °C 1010.2 hPa NW 2.9 km/h 1.9 km/h 91% 0.0 mm CLR
08:20 12.5 °C 10.9 °C 1010.2 hPa Calm     90% 0.0 mm CLR
08:25 12.8 °C 11.1 °C 1010.2 hPa Calm     89% 0.0 mm CLR
08:30 13.0 °C 11.1 °C 1010.2 hPa Calm     88% 0.0 mm CLR
08:35 13.3 °C 11.2 °C 1010.3 hPa Calm     87% 0.0 mm CLR
08:40 13.5 °C 11.0 °C 1010.3 hPa Calm   7.4 km/h 85% 0.0 mm CLR
08:45 13.6 °C 11.1 °C 1010.3 hPa Calm     85% 0.0 mm CLR
08:50 13.6 °C 11.1 °C 1010.2 hPa NNW 2.9 km/h 5.6 km/h 85% 0.0 mm CLR
08:55 13.7 °C 11.1 °C 1010.2 hPa West 2.9 km/h 7.4 km/h 84% 0.0 mm CLR
09:00 13.7 °C 11.1 °C 1010.2 hPa WNW 3.2 km/h 8.0 km/h 84% 0.0 mm CLR
09:05 13.9 °C 11.1 °C 1010.4 hPa West 4.7 km/h 5.6 km/h 83% 0.0 mm CLR
09:10 14.1 °C 11.3 °C 1010.4 hPa West 3.9 km/h 5.8 km/h 83% 0.0 mm CLR
09:15 14.3 °C 11.6 °C 1010.4 hPa NE 3.9 km/h 3.7 km/h 84% 0.0 mm CLR
09:20 14.6 °C 11.7 °C 1010.5 hPa NNE 3.2 km/h 5.6 km/h 83% 0.0 mm CLR
09:25 14.8 °C 11.8 °C 1010.5 hPa North 3.2 km/h 7.4 km/h 82% 0.0 mm CLR
09:30 14.9 °C 11.8 °C 1010.5 hPa North 2.9 km/h   82% 0.0 mm CLR
09:35 15.2 °C 11.8 °C 1010.5 hPa NNW 2.9 km/h 5.6 km/h 80% 0.0 mm CLR
09:40 15.4 °C 11.8 °C 1010.5 hPa NNW 2.3 km/h   79% 0.0 mm CLR
09:45 15.6 °C 11.4 °C 1010.5 hPa NNW 2.3 km/h   76% 0.0 mm CLR
09:50 15.7 °C 11.1 °C 1010.5 hPa Calm     74% 0.0 mm CLR
09:55 15.9 °C 10.8 °C 1010.5 hPa Calm     72% 0.0 mm CLR
10:00 16.2 °C 10.9 °C 1010.5 hPa NE 1.6 km/h 4.8 km/h 71% 0.0 mm CLR
10:05 16.4 °C 10.7 °C 1010.3 hPa NE 2.3 km/h 7.4 km/h 69% 0.0 mm CLR
10:10 16.6 °C 11.1 °C 1010.3 hPa ENE 2.3 km/h 7.4 km/h 70% 0.0 mm CLR
10:15 16.8 °C 11.3 °C 1010.3 hPa NNE 2.3 km/h 7.4 km/h 70% 0.0 mm CLR
10:20 16.8 °C 11.3 °C 1010.3 hPa NE 5.0 km/h 7.4 km/h 70% 0.0 mm CLR
10:25 16.9 °C 11.4 °C 1010.3 hPa NNW 5.0 km/h 4.7 km/h 70% 0.0 mm CLR
10:30 17.0 °C 11.1 °C 1010.3 hPa NW 3.2 km/h 7.6 km/h 68% 0.0 mm CLR
10:35 17.1 °C 11.2 °C 1010.4 hPa North 3.2 km/h 7.4 km/h 68% 0.0 mm CLR
10:40 17.2 °C 11.2 °C 1010.4 hPa West 4.7 km/h 7.4 km/h 68% 0.0 mm CLR
10:45 17.3 °C 11.3 °C 1010.4 hPa NW 4.7 km/h 6.4 km/h 68% 0.0 mm CLR
10:50 17.4 °C 11.2 °C 1010.4 hPa NNW 3.9 km/h 3.7 km/h 67% 0.0 mm CLR
10:55 17.7 °C 11.5 °C 1010.4 hPa West 3.9 km/h 3.7 km/h 67% 0.0 mm CLR
11:00 17.8 °C 11.4 °C 1010.4 hPa West 1.6 km/h 8.0 km/h 66% 0.0 mm CLR
11:05 18.0 °C 11.3 °C 1010.5 hPa West 2.3 km/h 5.6 km/h 65% 0.0 mm CLR
11:10 18.2 °C 11.5 °C 1010.5 hPa West 3.2 km/h 7.4 km/h 65% 0.0 mm CLR
11:15 18.4 °C 11.7 °C 1010.5 hPa West 3.2 km/h   65% 0.0 mm CLR
11:20 18.8 °C 11.8 °C 1010.7 hPa ENE 2.9 km/h 3.7 km/h 64% 0.0 mm CLR
11:25 19.1 °C 11.9 °C 1010.7 hPa SW 2.9 km/h 7.6 km/h 63% 0.0 mm CLR
11:30 19.3 °C 11.8 °C 1010.7 hPa SSE 3.2 km/h 16.7 km/h 62% 0.0 mm CLR
11:35 19.6 °C 11.9 °C 1010.6 hPa SSE 3.2 km/h 18.5 km/h 61% 0.0 mm CLR
11:40 19.7 °C 11.7 °C 1010.6 hPa South 9.5 km/h 14.8 km/h 60% 0.0 mm CLR
11:45 19.8 °C 11.8 °C 1010.6 hPa South 9.5 km/h 7.4 km/h 60% 0.0 mm CLR
11:50 20.0 °C 11.7 °C 1010.5 hPa South 7.6 km/h 7.4 km/h 59% 0.0 mm CLR
11:55 20.2 °C 11.9 °C 1010.5 hPa SSE 7.6 km/h 3.7 km/h 59% 0.0 mm CLR
12:00 20.4 °C 11.9 °C 1010.5 hPa South 3.2 km/h 8.0 km/h 58% 0.0 mm CLR
12:05 20.4 °C 12.1 °C 1010.7 hPa North 3.2 km/h 13.0 km/h 59% 0.0 mm CLR
12:10 20.4 °C 12.4 °C 1010.7 hPa NW 5.8 km/h 8.4 km/h 60% 0.0 mm CLR
12:15 20.4 °C 11.8 °C 1010.7 hPa West 5.8 km/h 9.3 km/h 58% 0.0 mm CLR
12:20 20.4 °C 11.6 °C 1010.7 hPa WSW 5.8 km/h 5.6 km/h 57% 0.0 mm CLR
12:25 20.6 °C 11.5 °C 1010.7 hPa WNW 5.8 km/h 7.4 km/h 56% 0.0 mm CLR
12:30 20.7 °C 11.3 °C 1010.7 hPa West 3.9 km/h 5.8 km/h 55% 0.0 mm CLR
12:35 20.9 °C 10.9 °C 1010.6 hPa West 3.9 km/h 11.1 km/h 53% 0.0 mm CLR
12:40 21.0 °C 11.1 °C 1010.6 hPa WNW 5.8 km/h 11.1 km/h 53% 0.0 mm CLR
12:45 21.1 °C 11.2 °C 1010.6 hPa West 5.8 km/h 13.0 km/h 53% 0.0 mm CLR
12:50 21.3 °C 11.1 °C 1010.6 hPa WNW 4.7 km/h 3.9 km/h 52% 0.0 mm CLR
12:55 21.4 °C 11.1 °C 1010.6 hPa SW 4.7 km/h 5.6 km/h 52% 0.0 mm CLR
13:00 21.6 °C 11.1 °C 1010.6 hPa WSW 3.2 km/h 8.0 km/h 51% 0.0 mm CLR
13:05 21.9 °C 11.3 °C 1010.6 hPa NE 2.9 km/h 7.4 km/h 51% 0.0 mm CLR
13:10 22.2 °C 11.3 °C 1010.6 hPa SSW 3.2 km/h 7.4 km/h 50% 0.0 mm CLR
13:15 22.3 °C 11.4 °C 1010.6 hPa South 3.2 km/h 7.4 km/h 50% 0.0 mm CLR
13:20 22.3 °C 11.7 °C 1010.4 hPa South 5.0 km/h 20.4 km/h 51% 0.0 mm CLR
13:25 22.0 °C 11.7 °C 1010.4 hPa South 5.0 km/h 9.3 km/h 52% 0.0 mm CLR
13:30 22.1 °C 12.1 °C 1010.4 hPa SW 8.7 km/h 3.9 km/h 53% 0.0 mm CLR
13:35 22.2 °C 12.2 °C 1010.4 hPa NE 8.7 km/h 3.7 km/h 53% 0.0 mm CLR
13:40 22.3 °C 12.3 °C 1010.4 hPa South 3.2 km/h 7.4 km/h 53% 0.0 mm CLR
13:45 22.5 °C 12.2 °C 1010.4 hPa SW 3.2 km/h 18.5 km/h 52% 0.0 mm CLR
13:50 22.4 °C 12.1 °C 1010.4 hPa WSW 7.6 km/h 20.4 km/h 52% 0.0 mm CLR
13:55 22.3 °C 12.3 °C 1010.4 hPa SW 7.6 km/h 18.5 km/h 53% 0.0 mm CLR
14:00 22.3 °C 12.2 °C 1010.4 hPa SW 12.9 km/h 22.5 km/h 53% 0.0 mm CLR
14:05 22.3 °C 12.6 °C 1010.4 hPa WSW 12.2 km/h 14.8 km/h 54% 0.0 mm CLR
14:10 22.4 °C 12.6 °C 1010.4 hPa West 11.1 km/h 25.9 km/h 54% 0.0 mm CLR
14:15 22.1 °C 12.6 °C 1010.4 hPa West 11.1 km/h 25.9 km/h 55% 0.0 mm CLR
14:20 22.0 °C 12.8 °C 1010.5 hPa NW 13.7 km/h 14.8 km/h 56% 0.0 mm CLR
14:25 21.9 °C 11.6 °C 1010.5 hPa WNW 13.7 km/h 25.9 km/h 52% 0.0 mm CLR
14:30 21.7 °C 12.0 °C 1010.5 hPa WNW 15.6 km/h 29.6 km/h 54% 0.0 mm CLR
14:35 21.1 °C 12.2 °C 1010.8 hPa NW 15.6 km/h 31.5 km/h 57% 0.0 mm CLR
14:40 20.7 °C 12.1 °C 1010.8 hPa NW 21.7 km/h 29.6 km/h 58% 0.0 mm CLR
14:45 20.5 °C 12.2 °C 1010.8 hPa NW 21.7 km/h 29.6 km/h 59% 0.0 mm CLR
14:50 20.6 °C 12.6 °C 1010.8 hPa WNW 19.0 km/h 25.9 km/h 60% 0.0 mm CLR
14:55 20.4 °C 12.4 °C 1010.8 hPa NW 19.0 km/h 22.2 km/h 60% 0.0 mm CLR
15:00 20.3 °C 12.3 °C 1010.8 hPa WNW 19.3 km/h 27.4 km/h 60% 0.0 mm CLR
15:05 20.3 °C 12.0 °C 1010.9 hPa NW 18.3 km/h 27.8 km/h 59% 0.0 mm CLR
15:10 20.3 °C 12.0 °C 1010.9 hPa WNW 16.1 km/h 18.5 km/h 59% 0.0 mm CLR
15:15 20.3 °C 12.0 °C 1010.9 hPa NW 16.1 km/h 18.5 km/h 59% 0.0 mm CLR
15:20 20.4 °C 12.1 °C 1011.2 hPa NNW 13.7 km/h 14.8 km/h 59% 0.0 mm CLR
15:25 20.4 °C 11.8 °C 1011.2 hPa WNW 13.7 km/h 18.5 km/h 58% 0.0 mm CLR
15:30 20.7 °C 11.6 °C 1011.2 hPa West 11.1 km/h 22.2 km/h 56% 0.0 mm CLR
15:35 21.0 °C 11.9 °C 1011.1 hPa WNW 11.1 km/h 18.5 km/h 56% 0.0 mm CLR
15:40 21.2 °C 11.5 °C 1011.1 hPa NNW 11.9 km/h 19.8 km/h 54% 0.0 mm CLR
15:45 21.4 °C 11.4 °C 1011.1 hPa WNW 11.9 km/h 20.4 km/h 53% 0.0 mm CLR
15:50 21.5 °C 11.5 °C 1010.9 hPa NNW 11.9 km/h 16.1 km/h 53% 0.0 mm CLR
15:55 21.6 °C 11.0 °C 1010.9 hPa NW 11.9 km/h 14.8 km/h 51% 0.0 mm CLR
16:00 21.7 °C 11.1 °C 1010.9 hPa NW 8.0 km/h 12.9 km/h 51% 0.0 mm CLR
16:05 21.9 °C 11.3 °C 1010.9 hPa SE 8.4 km/h 7.4 km/h 51% 0.0 mm CLR
16:10 22.0 °C 11.4 °C 1010.9 hPa NW 6.4 km/h 18.5 km/h 51% 0.0 mm CLR
16:15 21.9 °C 11.0 °C 1010.9 hPa WNW 6.4 km/h 20.1 km/h 50% 0.0 mm CLR
16:20 21.8 °C 10.9 °C 1010.9 hPa WNW 12.2 km/h 18.5 km/h 50% 0.0 mm CLR
16:25 21.8 °C 10.9 °C 1010.9 hPa West 12.2 km/h 20.4 km/h 50% 0.0 mm CLR
16:30 21.9 °C 11.3 °C 1010.9 hPa West 13.0 km/h 16.7 km/h 51% 0.0 mm CLR
16:35 22.0 °C 11.1 °C 1010.8 hPa WNW 13.0 km/h 7.4 km/h 50% 0.0 mm CLR
16:40 22.2 °C 11.3 °C 1010.8 hPa NW 5.8 km/h 9.3 km/h 50% 0.0 mm CLR
16:45 22.3 °C 11.1 °C 1010.8 hPa West 5.8 km/h 11.1 km/h 49% 0.0 mm CLR
16:50 22.3 °C 11.1 °C 1010.7 hPa WSW 7.6 km/h 11.1 km/h 49% 0.0 mm CLR
16:55 22.5 °C 11.2 °C 1010.7 hPa West 7.6 km/h 9.3 km/h 49% 0.0 mm CLR
17:00 22.5 °C 11.2 °C 1010.7 hPa West 8.0 km/h 12.9 km/h 49% 0.0 mm CLR
17:05 22.8 °C 11.2 °C 1010.6 hPa WSW 6.9 km/h 14.8 km/h 48% 0.0 mm CLR
17:10 23.1 °C 11.2 °C 1010.6 hPa South 8.7 km/h 9.3 km/h 47% 0.0 mm CLR
17:15 23.2 °C 11.3 °C 1010.6 hPa West 8.7 km/h 13.0 km/h 47% 0.0 mm CLR
17:20 23.2 °C 10.9 °C 1010.6 hPa NW 6.9 km/h 7.4 km/h 46% 0.0 mm CLR
17:25 23.3 °C 11.0 °C 1010.6 hPa South 6.9 km/h 13.0 km/h 46% 0.0 mm CLR
17:30 23.3 °C 11.3 °C 1010.6 hPa ESE 6.4 km/h 9.3 km/h 47% 0.0 mm CLR
17:35 23.5 °C 11.2 °C 1010.5 hPa SW 6.4 km/h 13.0 km/h 46% 0.0 mm CLR
17:40 23.4 °C 11.1 °C 1010.5 hPa SSE 7.6 km/h 13.0 km/h 46% 0.0 mm CLR
17:45 23.4 °C 11.1 °C 1010.5 hPa WSW 7.6 km/h 7.4 km/h 46% 0.0 mm CLR
17:50 23.6 °C 10.6 °C 1010.6 hPa West 7.6 km/h 14.8 km/h 44% 0.0 mm CLR
17:55 23.6 °C 10.6 °C 1010.6 hPa West 7.6 km/h 7.4 km/h 44% 0.0 mm CLR
18:00 23.7 °C 10.7 °C 1010.6 hPa West 8.0 km/h 11.3 km/h 44% 0.0 mm CLR
18:05 23.6 °C 10.6 °C 1010.8 hPa North 6.4 km/h 7.4 km/h 44% 0.0 mm CLR
18:10 23.6 °C 10.3 °C 1010.8 hPa NNE 5.8 km/h 11.1 km/h 43% 0.0 mm CLR
18:15 23.6 °C 10.3 °C 1010.8 hPa WNW 5.8 km/h 10.0 km/h 43% 0.0 mm CLR
18:20 23.7 °C 10.4 °C 1011.0 hPa NW 6.4 km/h 7.4 km/h 43% 0.0 mm CLR
18:25 23.7 °C 10.0 °C 1011.0 hPa SSE 6.4 km/h 11.1 km/h 42% 0.0 mm CLR
18:30 23.6 °C 9.6 °C 1011.0 hPa West 5.8 km/h 24.1 km/h 41% 0.0 mm CLR
18:35 23.6 °C 8.4 °C 1011.0 hPa SW 5.8 km/h 22.2 km/h 38% 0.0 mm CLR
18:40 23.8 °C 7.8 °C 1011.0 hPa SW 13.7 km/h 29.6 km/h 36% 0.0 mm CLR
18:45 23.9 °C 7.5 °C 1011.0 hPa West 13.7 km/h 24.1 km/h 35% 0.0 mm CLR
18:50 24.0 °C 6.7 °C 1011.0 hPa SW 16.4 km/h 22.2 km/h 33% 0.0 mm CLR
18:55 24.0 °C 6.7 °C 1011.0 hPa WSW 16.4 km/h 27.8 km/h 33% 0.0 mm CLR
19:00 23.9 °C 6.7 °C 1011.0 hPa SW 16.1 km/h 27.4 km/h 33% 0.0 mm CLR
19:05 23.9 °C 7.1 °C 1011.1 hPa NNW 16.4 km/h 15.6 km/h 34% 0.0 mm CLR
19:10 23.9 °C 7.1 °C 1011.1 hPa SW 11.9 km/h 16.7 km/h 34% 0.0 mm CLR
19:15 23.8 °C 7.0 °C 1011.1 hPa West 11.9 km/h 22.2 km/h 34% 0.0 mm CLR
19:20 23.6 °C 7.2 °C 1011.2 hPa WNW 13.7 km/h 33.3 km/h 35% 0.0 mm CLR
19:25 23.3 °C 7.4 °C 1011.2 hPa WNW 13.7 km/h 16.7 km/h 36% 0.0 mm CLR
19:30 23.2 °C 7.3 °C 1011.2 hPa West 14.8 km/h 13.0 km/h 36% 0.0 mm CLR
19:35 23.1 °C 7.6 °C 1011.4 hPa West 14.8 km/h 13.0 km/h 37% 0.0 mm CLR
19:40 23.1 °C 7.2 °C 1011.4 hPa West 7.6 km/h 16.7 km/h 36% 0.0 mm CLR
19:45 23.2 °C 7.7 °C 1011.4 hPa SW 7.6 km/h 9.3 km/h 37% 0.0 mm CLR
19:50 23.5 °C 7.6 °C 1011.6 hPa SW 8.4 km/h 13.0 km/h 36% 0.0 mm CLR
19:55 23.7 °C 7.3 °C 1011.6 hPa West 8.4 km/h 20.4 km/h 35% 0.0 mm CLR
20:00 23.6 °C 6.8 °C 1011.6 hPa WSW 11.3 km/h 25.7 km/h 34% 0.0 mm CLR
20:05 23.4 °C 6.6 °C 1011.8 hPa NW 11.9 km/h 21.7 km/h 34% 0.0 mm CLR
20:10 23.2 °C 6.1 °C 1011.8 hPa West 13.7 km/h 33.3 km/h 33% 0.0 mm CLR
20:15 22.9 °C 5.8 °C 1011.8 hPa West 13.7 km/h 27.8 km/h 33% 0.0 mm CLR
20:20 22.8 °C 5.7 °C 1012.2 hPa West 19.0 km/h 27.8 km/h 33% 0.0 mm CLR
20:25 22.8 °C 5.7 °C 1012.2 hPa NW 19.0 km/h 18.5 km/h 33% 0.0 mm CLR
20:30 22.6 °C 5.9 °C 1012.2 hPa North 14.8 km/h 24.1 km/h 34% 0.0 mm CLR
20:35 21.7 °C 6.8 °C 1012.7 hPa West 14.8 km/h 22.2 km/h 38% 0.0 mm CLR
20:40 20.4 °C 7.1 °C 1012.7 hPa WNW 17.2 km/h 42.6 km/h 42% 0.0 mm CLR
20:45 19.7 °C 7.1 °C 1012.7 hPa NW 17.2 km/h 20.4 km/h 44% 0.0 mm CLR
20:50 19.4 °C 7.2 °C 1013.2 hPa NW 20.9 km/h 26.2 km/h 45% 0.0 mm CLR
20:55 19.3 °C 7.1 °C 1013.2 hPa WNW 20.9 km/h 24.1 km/h 45% 0.0 mm CLR
21:00 19.3 °C 7.1 °C 1013.2 hPa WNW 19.3 km/h 27.4 km/h 45% 0.0 mm CLR
21:05 19.2 °C 6.9 °C 1013.7 hPa WNW 18.3 km/h 25.9 km/h 45% 0.0 mm CLR
21:10 19.1 °C 7.2 °C 1013.7 hPa NW 17.2 km/h 27.8 km/h 46% 0.0 mm CLR
21:15 18.9 °C 7.3 °C 1013.7 hPa WNW 17.2 km/h 22.2 km/h 47% 0.0 mm CLR
21:20 18.8 °C 7.2 °C 1013.8 hPa NW 14.8 km/h 24.1 km/h 47% 0.0 mm CLR
21:25 18.7 °C 7.2 °C 1013.8 hPa WNW 14.8 km/h 18.5 km/h 47% 0.0 mm CLR
21:30 18.6 °C 7.4 °C 1013.8 hPa WNW 14.8 km/h 19.0 km/h 48% 0.0 mm CLR
21:35 18.6 °C 7.4 °C 1014.0 hPa West 14.8 km/h 16.4 km/h 48% 0.0 mm CLR
21:40 18.6 °C 7.4 °C 1014.0 hPa WNW 13.0 km/h 20.4 km/h 48% 0.0 mm CLR
21:45 18.5 °C 7.3 °C 1014.0 hPa West 13.0 km/h 26.2 km/h 48% 0.0 mm CLR
21:50 18.6 °C 7.1 °C 1014.5 hPa WNW 16.1 km/h 33.3 km/h 47% 0.0 mm CLR
21:55 18.6 °C 7.1 °C 1014.5 hPa NW 16.1 km/h 31.5 km/h 47% 0.0 mm CLR
22:00 18.5 °C 7.3 °C 1014.5 hPa WNW 20.9 km/h 37.0 km/h 48% 0.0 mm CLR
22:05 18.3 °C 7.1 °C 1014.9 hPa NW 19.8 km/h 35.2 km/h 48% 0.0 mm CLR
22:10 18.1 °C 7.2 °C 1014.9 hPa NNW 24.5 km/h 38.9 km/h 49% 0.0 mm CLR
22:15 17.9 °C 7.0 °C 1014.9 hPa WNW 24.5 km/h 40.7 km/h 49% 0.0 mm CLR
22:20 17.8 °C 6.9 °C 1015.2 hPa WNW 24.5 km/h 38.9 km/h 49% 0.0 mm CLR
22:25 17.7 °C 6.8 °C 1015.2 hPa NW 24.5 km/h 40.7 km/h 49% 0.0 mm CLR
22:30 17.6 °C 7.1 °C 1015.2 hPa WNW 23.3 km/h 38.9 km/h 50% 0.0 mm CLR
22:35 17.6 °C 7.1 °C 1015.6 hPa WNW 23.3 km/h 24.1 km/h 50% 0.0 mm CLR
22:40 17.4 °C 6.9 °C 1015.6 hPa WNW 20.9 km/h 22.2 km/h 50% 0.0 mm CLR
22:45 17.4 °C 6.9 °C 1015.6 hPa WNW 20.9 km/h 33.3 km/h 50% 0.0 mm CLR
22:50 17.3 °C 6.8 °C 1015.8 hPa West 18.3 km/h 37.0 km/h 50% 0.0 mm CLR
22:55 17.3 °C 6.8 °C 1015.8 hPa WNW 18.3 km/h 29.6 km/h 50% 0.0 mm CLR
23:00 17.2 °C 6.9 °C 1015.8 hPa WNW 20.9 km/h 37.0 km/h 51% 0.0 mm CLR
23:05 17.1 °C 6.9 °C 1016.2 hPa WNW 20.9 km/h 31.5 km/h 51% 0.0 mm CLR
23:10 16.9 °C 7.0 °C 1016.2 hPa WNW 19.8 km/h 25.9 km/h 52% 0.0 mm CLR
23:15 16.9 °C 7.0 °C 1016.2 hPa West 19.8 km/h 27.8 km/h 52% 0.0 mm CLR
23:20 16.9 °C 7.0 °C 1016.5 hPa WNW 17.2 km/h 29.6 km/h 52% 0.0 mm CLR
23:25 17.0 °C 7.1 °C 1016.5 hPa West 17.2 km/h 29.6 km/h 52% 0.0 mm CLR
23:30 16.9 °C 7.0 °C 1016.5 hPa West 19.0 km/h 25.9 km/h 52% 0.0 mm CLR
23:35 16.8 °C 6.9 °C 1016.7 hPa WNW 19.0 km/h 14.8 km/h 52% 0.0 mm CLR
23:40 16.8 °C 7.2 °C 1016.7 hPa West 13.7 km/h 18.5 km/h 53% 0.0 mm CLR
23:45 16.7 °C 6.8 °C 1016.7 hPa WNW 13.7 km/h 20.4 km/h 52% 0.0 mm CLR
23:50 16.7 °C 7.1 °C 1016.8 hPa West 12.2 km/h 14.8 km/h 53% 0.0 mm CLR
23:55 16.7 °C 7.1 °C 1016.8 hPa NW 12.2 km/h 11.1 km/h 53% 0.0 mm CLR
Murcia-Puente Tocinos, España
Compliments of Weather Underground - 2.75 mb

La estación de MeteoMurcia.com, publica sus datos en los siguientes proyectos:

Weather Underground PWS IMURCIAP2 Meteoclimatic www.awekas.at

W3Counter
Web Analytics